Time;durP1;ratioP1;P1;durP2;ratioP2;P2;SDS_P1;SDS_P2;PMS_P1;PMS_P2;Temp;Humidity;BMP_temperature;BMP_pressure;BME280_temperature;BME280_humidity;BME280_pressure;Samples;Min_cycle;Max_cycle;Signal;HPM_P1;HPM_P2
2022/07/30 00:02:17;;;;;;;;;;;17.70;99.90;;;;;;4993372;28;19926;-72
2022/07/30 00:04:46;;;;;;;;;;;17.60;99.90;;;;;;5016149;28;19980;-72
2022/07/30 00:07:12;;;;;;;;;;;17.60;99.90;;;;;;5002932;28;19926;-72
2022/07/30 00:09:39;;;;;;;;;;;17.60;99.90;;;;;;4987758;28;19926;-72
2022/07/30 00:12:07;;;;;;;;;;;17.50;99.90;;;;;;5016181;28;19933;-72
2022/07/30 00:14:34;;;;;;;;;;;17.50;99.90;;;;;;4994652;28;20386;-71
2022/07/30 00:17:00;;;;;;;;;;;17.40;99.90;;;;;;4989758;28;20384;-72
2022/07/30 00:19:28;;;;;;;;;;;17.40;99.90;;;;;;5008673;28;19925;-72
2022/07/30 00:21:56;;;;;;;;;;;17.40;99.90;;;;;;4992334;28;19937;-72
2022/07/30 00:24:23;;;;;;;;;;;17.20;99.90;;;;;;5001457;28;19926;-71
2022/07/30 00:26:50;;;;;;;;;;;17.10;99.90;;;;;;5026787;28;19925;-71
2022/07/30 00:29:17;;;;;;;;;;;17.10;99.90;;;;;;5022412;28;19932;-71
2022/07/30 00:31:43;;;;;;;;;;;17.10;99.90;;;;;;4992865;28;19929;-71
2022/07/30 00:34:11;;;;;;;;;;;17.00;99.90;;;;;;5006045;28;19926;-71
2022/07/30 00:36:38;;;;;;;;;;;16.90;99.90;;;;;;4992611;28;19932;-71
2022/07/30 00:39:06;;;;;;;;;;;16.90;99.90;;;;;;4989796;28;19929;-71
2022/07/30 00:41:33;;;;;;;;;;;16.90;99.90;;;;;;4985518;28;19926;-72
2022/07/30 00:44:00;;;;;;;;;;;17.00;99.90;;;;;;4990748;28;19932;-71
2022/07/30 00:46:28;;;;;;;;;;;16.90;99.90;;;;;;4989215;28;20029;-70
2022/07/30 00:48:55;;;;;;;;;;;17.00;99.90;;;;;;4983347;28;19932;-72
2022/07/30 00:51:21;;;;;;;;;;;17.00;99.90;;;;;;4986632;28;19933;-71
2022/07/30 00:53:48;;;;;;;;;;;17.00;99.90;;;;;;5000923;28;19926;-72
2022/07/30 00:56:16;;;;;;;;;;;16.90;99.90;;;;;;4992239;28;19930;-71
2022/07/30 00:58:43;;;;;;;;;;;16.90;99.90;;;;;;4987087;28;19926;-71
2022/07/30 01:01:10;;;;;;;;;;;16.90;99.90;;;;;;4990912;28;19933;-71
2022/07/30 01:03:37;;;;;;;;;;;16.90;99.90;;;;;;5021257;28;19929;-71
2022/07/30 01:06:04;;;;;;;;;;;16.90;99.90;;;;;;4990559;28;19929;-71
2022/07/30 01:08:31;;;;;;;;;;;16.90;99.90;;;;;;5016461;28;19926;-71
2022/07/30 01:10:58;;;;;;;;;;;16.90;99.90;;;;;;4995244;28;19980;-70
2022/07/30 01:13:26;;;;;;;;;;;16.80;99.90;;;;;;4983844;28;19932;-70
2022/07/30 01:15:53;;;;;;;;;;;16.80;99.90;;;;;;4982378;28;19925;-70
2022/07/30 01:18:21;;;;;;;;;;;16.80;99.90;;;;;;4988822;28;20348;-69
2022/07/30 01:20:52;;;;;;;;;;;16.90;99.90;;;;;;4991728;28;19961;-69
2022/07/30 01:23:23;;;;;;;;;;;16.90;99.90;;;;;;4986987;28;20393;-69
2022/07/30 01:25:56;;;;;;;;;;;16.80;99.90;;;;;;5003297;28;19925;-69
2022/07/30 01:28:25;;;;;;;;;;;16.80;99.90;;;;;;5008752;22;19936;-67
2022/07/30 01:30:52;;;;;;;;;;;16.70;99.90;;;;;;5034721;28;19925;-67
2022/07/30 01:33:21;;;;;;;;;;;16.70;99.90;;;;;;5047076;28;20392;-67
2022/07/30 01:35:48;;;;;;;;;;;16.70;99.90;;;;;;5039326;28;19987;-67
2022/07/30 01:38:18;;;;;;;;;;;16.70;99.90;;;;;;5037858;28;19928;-67
2022/07/30 01:40:45;;;;;;;;;;;16.60;99.90;;;;;;5028163;28;19971;-67
2022/07/30 01:43:13;;;;;;;;;;;16.60;99.90;;;;;;5028004;28;19982;-67
2022/07/30 01:45:41;;;;;;;;;;;16.60;99.90;;;;;;5026911;28;19955;-66
2022/07/30 01:48:08;;;;;;;;;;;16.60;99.90;;;;;;5028240;28;19925;-67
2022/07/30 01:50:38;;;;;;;;;;;16.60;99.90;;;;;;5030502;28;19929;-67
2022/07/30 01:53:05;;;;;;;;;;;16.50;99.90;;;;;;5024149;28;19936;-68
2022/07/30 01:55:34;;;;;;;;;;;16.40;99.90;;;;;;5029909;28;20421;-67
2022/07/30 01:58:01;;;;;;;;;;;16.40;99.90;;;;;;5026152;28;19933;-67
2022/07/30 02:00:31;;;;;;;;;;;16.40;99.90;;;;;;5027639;28;19925;-66
2022/07/30 02:02:58;;;;;;;;;;;16.40;99.90;;;;;;5028347;28;19968;-66
2022/07/30 02:05:27;;;;;;;;;;;16.40;99.90;;;;;;5028150;28;19936;-67
2022/07/30 02:08:09;;;;;;;;;;;16.40;99.90;;;;;;5019243;28;19924;-66
2022/07/30 02:10:41;;;;;;;;;;;16.40;99.90;;;;;;5028587;28;19925;-66
2022/07/30 02:13:15;;;;;;;;;;;16.30;99.90;;;;;;5026503;28;19932;-67
2022/07/30 02:15:46;;;;;;;;;;;16.30;99.90;;;;;;5030248;28;19936;-67
2022/07/30 02:18:15;;;;;;;;;;;16.30;99.90;;;;;;5027018;28;19925;-66
2022/07/30 02:20:44;;;;;;;;;;;16.30;99.90;;;;;;5029794;28;19932;-67
2022/07/30 02:23:12;;;;;;;;;;;16.20;99.90;;;;;;5027832;28;19932;-67
2022/07/30 02:25:42;;;;;;;;;;;16.20;99.90;;;;;;5020552;28;19929;-67
2022/07/30 02:28:11;;;;;;;;;;;16.20;99.90;;;;;;5019466;28;19933;-67
2022/07/30 02:30:40;;;;;;;;;;;16.20;99.90;;;;;;5025588;28;19925;-66
2022/07/30 02:33:11;;;;;;;;;;;16.10;99.90;;;;;;5024383;28;19932;-67
2022/07/30 02:35:38;;;;;;;;;;;16.10;99.90;;;;;;5025820;28;20024;-67
2022/07/30 02:38:05;;;;;;;;;;;16.10;99.90;;;;;;5041995;28;19948;-67
2022/07/30 02:40:32;;;;;;;;;;;16.00;99.90;;;;;;5023807;28;19982;-67
2022/07/30 02:43:00;;;;;;;;;;;16.00;99.90;;;;;;5021918;28;19971;-66
2022/07/30 02:45:29;;;;;;;;;;;16.00;99.90;;;;;;5030067;28;19928;-67
2022/07/30 02:47:59;;;;;;;;;;;16.00;99.90;;;;;;5019465;28;19925;-67
2022/07/30 02:50:27;;;;;;;;;;;16.00;99.90;;;;;;5030086;28;19933;-66
2022/07/30 02:52:55;;;;;;;;;;;16.00;99.90;;;;;;5025669;28;19982;-67
2022/07/30 02:55:22;;;;;;;;;;;15.90;99.90;;;;;;5031270;28;19929;-67
2022/07/30 02:57:51;;;;;;;;;;;15.90;99.90;;;;;;5026868;28;19933;-67
2022/07/30 03:00:18;;;;;;;;;;;15.90;99.90;;;;;;5021124;28;19929;-66
2022/07/30 03:02:45;;;;;;;;;;;15.70;99.90;;;;;;5022993;28;19933;-67
2022/07/30 03:05:13;;;;;;;;;;;15.70;99.90;;;;;;5026252;28;19940;-66
2022/07/30 03:07:42;;;;;;;;;;;15.70;99.90;;;;;;5027066;28;20023;-67
2022/07/30 03:10:09;;;;;;;;;;;15.60;99.90;;;;;;5025196;28;19968;-67
2022/07/30 03:12:36;;;;;;;;;;;15.50;99.90;;;;;;5025113;28;19925;-67
2022/07/30 03:15:03;;;;;;;;;;;15.50;99.90;;;;;;5021794;28;19995;-66
2022/07/30 03:17:35;;;;;;;;;;;15.50;99.90;;;;;;5028117;28;20358;-65
2022/07/30 03:20:03;;;;;;;;;;;15.50;99.90;;;;;;5026240;28;19975;-67
2022/07/30 03:22:32;;;;;;;;;;;15.50;99.90;;;;;;5024830;28;19924;-67
2022/07/30 03:25:02;;;;;;;;;;;15.50;99.90;;;;;;5030422;28;19925;-66
2022/07/30 03:27:30;;;;;;;;;;;15.50;99.90;;;;;;5021763;28;19983;-64
2022/07/30 03:30:01;;;;;;;;;;;15.40;99.90;;;;;;5031332;28;19979;-65
2022/07/30 03:32:28;;;;;;;;;;;15.40;99.90;;;;;;5027759;28;19925;-66
2022/07/30 03:34:55;;;;;;;;;;;15.40;99.90;;;;;;5029873;28;19925;-66
2022/07/30 03:37:24;;;;;;;;;;;15.40;99.90;;;;;;5029213;28;19925;-67
2022/07/30 03:39:51;;;;;;;;;;;15.30;99.90;;;;;;5026927;28;19925;-66
2022/07/30 03:42:19;;;;;;;;;;;15.30;99.90;;;;;;5032756;28;20377;-66
2022/07/30 03:44:46;;;;;;;;;;;15.30;99.90;;;;;;5031349;28;20480;-67
2022/07/30 03:47:14;;;;;;;;;;;15.20;99.90;;;;;;5024863;28;19932;-66
2022/07/30 03:49:46;;;;;;;;;;;15.20;99.90;;;;;;5025958;28;20400;-66
2022/07/30 03:52:13;;;;;;;;;;;15.20;99.90;;;;;;5025392;28;19930;-66
2022/07/30 03:54:40;;;;;;;;;;;15.10;99.90;;;;;;5031072;28;19948;-65
2022/07/30 03:57:31;;;;;;;;;;;15.10;99.90;;;;;;5044188;28;19932;-64
2022/07/30 03:59:59;;;;;;;;;;;15.10;99.90;;;;;;5031315;28;19933;-67
2022/07/30 04:02:26;;;;;;;;;;;15.20;99.90;;;;;;5033792;28;19932;-67
2022/07/30 04:04:53;;;;;;;;;;;15.20;99.90;;;;;;5041139;28;20746;-67
2022/07/30 04:07:20;;;;;;;;;;;15.20;99.90;;;;;;5021827;28;19932;-67
2022/07/30 04:09:47;;;;;;;;;;;15.30;99.90;;;;;;5031016;28;20417;-67
2022/07/30 04:12:36;;;;;;;;;;;15.30;99.90;;;;;;5023013;28;20007;-69
2022/07/30 04:15:03;;;;;;;;;;;15.30;99.90;;;;;;5027961;28;20388;-66
2022/07/30 04:17:33;;;;;;;;;;;15.30;99.90;;;;;;5026916;28;19925;-65
2022/07/30 04:20:06;;;;;;;;;;;15.40;99.90;;;;;;5024349;28;20523;-66
2022/07/30 04:22:34;;;;;;;;;;;15.40;99.90;;;;;;5012548;28;20364;-66
2022/07/30 04:25:02;;;;;;;;;;;15.40;99.90;;;;;;5025698;28;19924;-66
2022/07/30 04:27:30;;;;;;;;;;;15.50;99.90;;;;;;5031355;28;20278;-65
2022/07/30 04:29:59;;;;;;;;;;;15.50;99.90;;;;;;5028524;28;19929;-66
2022/07/30 04:32:26;;;;;;;;;;;15.60;99.90;;;;;;5029364;28;19951;-66
2022/07/30 04:35:11;;;;;;;;;;;15.60;99.90;;;;;;5040009;28;19931;-66
2022/07/30 04:38:09;;;;;;;;;;;15.60;99.90;;;;;;5025675;28;19925;-66
2022/07/30 04:40:36;;;;;;;;;;;15.60;99.90;;;;;;5031355;28;19979;-67
2022/07/30 04:43:03;;;;;;;;;;;15.70;99.90;;;;;;5030906;28;19925;-66
2022/07/30 04:45:32;;;;;;;;;;;15.70;99.90;;;;;;5026622;28;20339;-66
2022/07/30 04:48:00;;;;;;;;;;;15.80;99.90;;;;;;5031184;28;19925;-64
2022/07/30 04:50:44;;;;;;;;;;;15.90;99.90;;;;;;5026618;28;19929;-66
2022/07/30 04:53:14;;;;;;;;;;;15.90;99.90;;;;;;5029434;28;20401;-66
2022/07/30 04:55:47;;;;;;;;;;;16.00;99.90;;;;;;5028783;28;20006;-66
2022/07/30 04:58:17;;;;;;;;;;;16.00;99.90;;;;;;5028173;28;19976;-66
2022/07/30 05:00:45;;;;;;;;;;;16.10;99.90;;;;;;5018476;28;19929;-65
2022/07/30 05:03:16;;;;;;;;;;;16.30;99.90;;;;;;5015102;28;20273;-66
2022/07/30 05:05:50;;;;;;;;;;;16.30;99.90;;;;;;5016652;28;20022;-65
2022/07/30 05:08:17;;;;;;;;;;;16.40;99.90;;;;;;5011807;28;19975;-66
2022/07/30 05:10:44;;;;;;;;;;;16.50;99.90;;;;;;5012727;28;19925;-66
2022/07/30 05:13:12;;;;;;;;;;;16.50;99.90;;;;;;5017524;28;20017;-66
2022/07/30 05:15:40;;;;;;;;;;;16.50;99.90;;;;;;5014810;28;19926;-67
2022/07/30 05:18:11;;;;;;;;;;;16.50;99.90;;;;;;5017104;28;20319;-65
2022/07/30 05:20:41;;;;;;;;;;;16.40;99.90;;;;;;5017188;28;19936;-65
2022/07/30 05:23:35;;;;;;;;;;;16.50;99.90;;;;;;5029218;28;20347;-65
2022/07/30 05:26:14;;;;;;;;;;;16.50;99.90;;;;;;5017786;28;20296;-65
2022/07/30 05:28:45;;;;;;;;;;;16.40;99.90;;;;;;5014070;28;20002;-65
2022/07/30 05:31:14;;;;;;;;;;;16.40;99.90;;;;;;5017694;28;19975;-65
2022/07/30 05:33:47;;;;;;;;;;;16.40;99.90;;;;;;5016264;28;19969;-66
2022/07/30 05:36:17;;;;;;;;;;;16.50;99.90;;;;;;5016477;28;19964;-65
2022/07/30 05:38:44;;;;;;;;;;;16.50;99.90;;;;;;5017981;28;19960;-63
2022/07/30 05:41:31;;;;;;;;;;;16.50;99.90;;;;;;5031650;28;19931;-65
2022/07/30 05:44:08;;;;;;;;;;;16.60;99.90;;;;;;5016366;28;19929;-64
2022/07/30 05:46:35;;;;;;;;;;;16.60;99.90;;;;;;5013584;28;19925;-65
2022/07/30 05:49:04;;;;;;;;;;;16.60;99.90;;;;;;5017861;28;20020;-65
2022/07/30 05:51:32;;;;;;;;;;;16.60;99.90;;;;;;5014290;28;19925;-64
2022/07/30 05:53:59;;;;;;;;;;;16.60;99.90;;;;;;5012160;28;19926;-66
2022/07/30 05:56:46;;;;;;;;;;;16.60;99.90;;;;;;4995755;28;19964;-65
2022/07/30 05:59:29;;;;;;;;;;;16.50;99.90;;;;;;5018482;28;19925;-65
2022/07/30 06:02:02;;;;;;;;;;;16.60;99.90;;;;;;5030381;28;19925;-65
2022/07/30 06:04:42;;;;;;;;;;;16.50;99.90;;;;;;5017927;28;19924;-66
2022/07/30 06:07:09;;;;;;;;;;;16.60;99.90;;;;;;5015639;28;19925;-66
2022/07/30 06:09:36;;;;;;;;;;;16.60;99.90;;;;;;5020173;28;20328;-66
2022/07/30 06:12:04;;;;;;;;;;;16.70;99.90;;;;;;5019833;28;19928;-66
2022/07/30 06:14:31;;;;;;;;;;;16.70;99.90;;;;;;5011618;28;19933;-65
2022/07/30 06:16:58;;;;;;;;;;;16.70;99.90;;;;;;5017429;28;20277;-65
2022/07/30 06:19:27;;;;;;;;;;;16.80;99.90;;;;;;5015515;28;19925;-66
2022/07/30 06:21:56;;;;;;;;;;;16.90;99.90;;;;;;5018118;28;20471;-65
2022/07/30 06:24:24;;;;;;;;;;;16.90;99.90;;;;;;5019301;28;20020;-66
2022/07/30 06:27:00;;;;;;;;;;;17.00;99.90;;;;;;5015855;28;20024;-67
2022/07/30 06:29:27;;;;;;;;;;;17.00;99.90;;;;;;5015063;28;19925;-65
2022/07/30 06:31:54;;;;;;;;;;;16.80;99.90;;;;;;5016162;28;19929;-66
2022/07/30 06:34:21;;;;;;;;;;;16.80;99.90;;;;;;5018643;28;19933;-65
2022/07/30 06:36:48;;;;;;;;;;;16.80;99.90;;;;;;5019337;28;19936;-66
2022/07/30 06:39:21;;;;;;;;;;;16.80;99.90;;;;;;5017406;28;19925;-65
2022/07/30 06:41:57;;;;;;;;;;;16.90;99.90;;;;;;5028680;28;19925;-66
2022/07/30 06:44:28;;;;;;;;;;;16.90;99.90;;;;;;5012116;28;19936;-65
2022/07/30 06:47:19;;;;;;;;;;;17.00;99.90;;;;;;5034010;28;20415;-66
2022/07/30 06:49:46;;;;;;;;;;;17.10;99.90;;;;;;5016145;28;19933;-66
2022/07/30 06:52:12;;;;;;;;;;;17.30;99.90;;;;;;5015636;28;19925;-66
2022/07/30 06:54:46;;;;;;;;;;;17.20;99.90;;;;;;5013600;28;19933;-66
2022/07/30 06:57:19;;;;;;;;;;;17.30;99.90;;;;;;5025602;28;20039;-65
2022/07/30 06:59:47;;;;;;;;;;;17.30;99.90;;;;;;5027389;28;19986;-65
2022/07/30 07:02:33;;;;;;;;;;;17.30;99.90;;;;;;5018248;28;19948;-64
2022/07/30 07:05:08;;;;;;;;;;;17.30;99.90;;;;;;5022389;28;20302;-70
2022/07/30 07:07:34;;;;;;;;;;;17.40;99.90;;;;;;5024252;28;19929;-65
2022/07/30 07:10:03;;;;;;;;;;;17.40;99.90;;;;;;5023161;28;19932;-66
2022/07/30 07:12:39;;;;;;;;;;;17.50;99.90;;;;;;5038934;28;20388;-66
2022/07/30 07:15:07;;;;;;;;;;;17.70;99.90;;;;;;5024576;28;19925;-66
2022/07/30 07:17:34;;;;;;;;;;;17.80;99.90;;;;;;5031570;28;19979;-67
2022/07/30 07:20:04;;;;;;;;;;;17.70;99.90;;;;;;5041923;28;19925;-67
2022/07/30 07:22:38;;;;;;;;;;;17.90;99.90;;;;;;5031072;28;19931;-67
2022/07/30 07:25:07;;;;;;;;;;;18.00;99.90;;;;;;5029733;28;20293;-67
2022/07/30 07:27:36;;;;;;;;;;;17.90;99.90;;;;;;5027329;28;20027;-67
2022/07/30 07:30:03;;;;;;;;;;;18.00;99.90;;;;;;5030346;28;19925;-67
2022/07/30 07:32:30;;;;;;;;;;;18.10;99.90;;;;;;5024892;28;19931;-66
2022/07/30 07:34:57;;;;;;;;;;;18.00;99.90;;;;;;5030319;28;19924;-67
2022/07/30 07:37:24;;;;;;;;;;;18.00;99.90;;;;;;5028519;28;19925;-66
2022/07/30 07:39:51;;;;;;;;;;;18.10;99.90;;;;;;5030955;28;20447;-67
2022/07/30 07:42:19;;;;;;;;;;;18.10;99.90;;;;;;5028526;28;20035;-67
2022/07/30 07:44:50;;;;;;;;;;;18.20;99.90;;;;;;5033110;28;19951;-67
2022/07/30 07:47:18;;;;;;;;;;;18.40;99.90;;;;;;5032011;28;20390;-67
2022/07/30 07:49:59;;;;;;;;;;;18.70;99.90;;;;;;5029298;28;19925;-67
2022/07/30 07:52:26;;;;;;;;;;;18.80;99.90;;;;;;5033666;28;19944;-67
2022/07/30 07:54:53;;;;;;;;;;;18.90;99.90;;;;;;5025919;28;19925;-67
2022/07/30 07:57:21;;;;;;;;;;;19.10;99.90;;;;;;5032409;28;20004;-65
2022/07/30 07:59:48;;;;;;;;;;;19.10;99.90;;;;;;5030406;28;19971;-67
2022/07/30 08:02:21;;;;;;;;;;;19.20;99.90;;;;;;5030851;28;19925;-67
2022/07/30 08:05:09;;;;;;;;;;;19.40;99.90;;;;;;5026654;28;19994;-66
2022/07/30 08:07:45;;;;;;;;;;;19.50;99.90;;;;;;5043074;28;19925;-67
2022/07/30 08:10:38;;;;;;;;;;;19.60;99.90;;;;;;5005858;28;19932;-67
2022/07/30 08:13:44;;;;;;;;;;;19.90;99.90;;;;;;5010345;28;19984;-67
2022/07/30 08:16:30;;;;;;;;;;;19.60;99.90;;;;;;5042752;28;19931;-66
2022/07/30 08:19:15;;;;;;;;;;;19.50;99.90;;;;;;5035061;28;20532;-67
2022/07/30 08:21:50;;;;;;;;;;;19.70;99.90;;;;;;5033034;28;19929;-67
2022/07/30 08:24:18;;;;;;;;;;;20.00;99.90;;;;;;5031218;28;19964;-67
2022/07/30 08:26:44;;;;;;;;;;;19.70;99.90;;;;;;5032458;28;20290;-67
2022/07/30 08:29:13;;;;;;;;;;;19.70;99.90;;;;;;5029159;28;19936;-67
2022/07/30 08:31:42;;;;;;;;;;;19.90;99.90;;;;;;5028083;28;19936;-67
2022/07/30 08:34:09;;;;;;;;;;;20.00;99.90;;;;;;5030955;28;19924;-67
2022/07/30 08:36:36;;;;;;;;;;;20.00;99.90;;;;;;5029563;28;19947;-67
2022/07/30 08:39:03;;;;;;;;;;;19.90;99.90;;;;;;5032858;28;19963;-67
2022/07/30 08:41:30;;;;;;;;;;;20.00;99.90;;;;;;5031102;28;19948;-67
2022/07/30 08:43:59;;;;;;;;;;;20.10;99.90;;;;;;5034446;28;19936;-65
2022/07/30 08:46:30;;;;;;;;;;;20.00;99.90;;;;;;5029669;28;19929;-66
2022/07/30 08:49:02;;;;;;;;;;;20.00;99.90;;;;;;5026392;28;19968;-66
2022/07/30 08:51:28;;;;;;;;;;;20.10;99.90;;;;;;5026098;28;19933;-67
2022/07/30 08:54:29;;;;;;;;;;;20.50;99.90;;;;;;5024617;28;19968;-67
2022/07/30 08:56:58;;;;;;;;;;;21.00;99.90;;;;;;5034074;28;19936;-66
2022/07/30 08:59:25;;;;;;;;;;;20.90;99.90;;;;;;5025504;28;19925;-67
2022/07/30 09:01:54;;;;;;;;;;;20.60;99.90;;;;;;5012349;28;20464;-65
2022/07/30 09:04:21;;;;;;;;;;;20.30;99.90;;;;;;5029590;28;19940;-67
2022/07/30 09:06:48;;;;;;;;;;;20.10;99.90;;;;;;5027834;28;19940;-67
2022/07/30 09:09:15;;;;;;;;;;;20.50;99.90;;;;;;5030066;28;19925;-67
2022/07/30 09:11:42;;;;;;;;;;;20.80;99.90;;;;;;5027084;28;19925;-67
2022/07/30 09:14:10;;;;;;;;;;;21.20;99.90;;;;;;5023800;28;20312;-68
2022/07/30 09:16:37;;;;;;;;;;;21.30;99.90;;;;;;5030438;28;19932;-67
2022/07/30 09:19:13;;;;;;;;;;;21.50;99.90;;;;;;5028516;28;20028;-68
2022/07/30 09:21:40;;;;;;;;;;;21.30;99.90;;;;;;5044496;28;19924;-67
2022/07/30 09:24:26;;;;;;;;;;;21.20;99.90;;;;;;5030350;28;19937;-66
2022/07/30 09:27:12;;;;;;;;;;;20.80;99.90;;;;;;5042915;28;20066;-67
2022/07/30 09:29:58;;;;;;;;;;;21.00;99.90;;;;;;5045666;28;19931;-67
2022/07/30 09:32:48;;;;;;;;;;;21.10;99.90;;;;;;5035638;28;19987;-67
2022/07/30 09:35:44;;;;;;;;;;;21.40;99.90;;;;;;4999224;28;20503;-66
2022/07/30 09:38:13;;;;;;;;;;;21.30;99.90;;;;;;5043328;28;20457;-67
2022/07/30 09:40:52;;;;;;;;;;;21.50;99.90;;;;;;5032673;28;20059;-67
2022/07/30 09:43:42;;;;;;;;;;;21.50;99.90;;;;;;5042283;28;20059;-67
2022/07/30 09:46:12;;;;;;;;;;;21.40;99.90;;;;;;5029082;28;19929;-66
2022/07/30 09:48:39;;;;;;;;;;;21.40;99.90;;;;;;5026807;28;19931;-68
2022/07/30 09:51:07;;;;;;;;;;;21.50;99.90;;;;;;5030008;28;19931;-67
2022/07/30 09:53:34;;;;;;;;;;;21.50;99.90;;;;;;5028860;28;20388;-66
2022/07/30 09:56:01;;;;;;;;;;;21.50;99.90;;;;;;5033025;28;19929;-67
2022/07/30 09:58:39;;;;;;;;;;;21.40;99.90;;;;;;5026726;28;19925;-67
2022/07/30 10:01:08;;;;;;;;;;;21.30;99.90;;;;;;5029919;28;20019;-67
2022/07/30 10:03:54;;;;;;;;;;;21.20;99.90;;;;;;5033129;28;19936;-67
2022/07/30 10:06:37;;;;;;;;;;;21.30;99.90;;;;;;5036428;28;19925;-67
2022/07/30 10:09:09;;;;;;;;;;;21.50;99.90;;;;;;5014580;28;19925;-67
2022/07/30 10:11:36;;;;;;;;;;;21.70;99.90;;;;;;5026431;28;19960;-66
2022/07/30 10:14:04;;;;;;;;;;;21.60;99.90;;;;;;5029514;28;20442;-66
2022/07/30 10:16:30;;;;;;;;;;;21.60;99.90;;;;;;5018885;28;19932;-66
2022/07/30 10:18:59;;;;;;;;;;;21.60;99.90;;;;;;5019975;28;20393;-66
2022/07/30 10:21:26;;;;;;;;;;;21.60;99.90;;;;;;5039544;28;19925;-67
2022/07/30 10:24:30;;;;;;;;;;;21.80;99.90;;;;;;4958063;28;19938;-67
2022/07/30 10:27:16;;;;;;;;;;;21.80;99.90;;;;;;5028540;28;20023;-66
2022/07/30 10:29:57;;;;;;;;;;;21.90;99.90;;;;;;5023122;28;19929;-66
2022/07/30 10:32:24;;;;;;;;;;;21.90;99.90;;;;;;5027409;28;19979;-68
2022/07/30 10:34:51;;;;;;;;;;;22.10;99.90;;;;;;5022813;28;19971;-67
2022/07/30 10:37:19;;;;;;;;;;;22.20;99.90;;;;;;5026137;28;19975;-66
2022/07/30 10:39:56;;;;;;;;;;;22.30;99.90;;;;;;5026253;28;20427;-67
2022/07/30 10:42:30;;;;;;;;;;;22.50;99.90;;;;;;5029482;28;19925;-67
2022/07/30 10:45:03;;;;;;;;;;;22.50;99.90;;;;;;5023752;28;19924;-67
2022/07/30 10:47:31;;;;;;;;;;;22.80;99.90;;;;;;5028772;28;19932;-65
2022/07/30 10:50:05;;;;;;;;;;;23.00;99.90;;;;;;5031651;28;19929;-67
2022/07/30 10:52:49;;;;;;;;;;;23.30;99.90;;;;;;5028651;28;19951;-66
2022/07/30 10:55:18;;;;;;;;;;;23.30;99.90;;;;;;5025389;28;19925;-66
2022/07/30 10:57:58;;;;;;;;;;;23.10;99.90;;;;;;5033474;28;19929;-67
2022/07/30 11:00:25;;;;;;;;;;;23.10;99.90;;;;;;5023748;28;20384;-66
2022/07/30 11:03:11;;;;;;;;;;;23.20;99.90;;;;;;5019974;28;19925;-67
2022/07/30 11:05:39;;;;;;;;;;;23.20;99.90;;;;;;5018216;28;20393;-67
2022/07/30 11:08:33;;;;;;;;;;;23.40;99.90;;;;;;5017319;28;19925;-66
2022/07/30 11:11:01;;;;;;;;;;;23.70;99.90;;;;;;4989335;28;19936;-67
2022/07/30 11:13:48;;;;;;;;;;;23.90;99.90;;;;;;5015034;28;19925;-66
2022/07/30 11:16:16;;;;;;;;;;;24.20;99.90;;;;;;5015305;28;19925;-67
2022/07/30 11:18:57;;;;;;;;;;;24.40;99.90;;;;;;5025554;28;19978;-67
2022/07/30 11:21:24;;;;;;;;;;;24.50;99.90;;;;;;5033577;28;20374;-67
2022/07/30 11:23:52;;;;;;;;;;;24.70;99.90;;;;;;5019740;28;19940;-66
2022/07/30 11:26:37;;;;;;;;;;;24.90;99.90;;;;;;5025316;28;19925;-66
2022/07/30 11:29:06;;;;;;;;;;;25.00;99.90;;;;;;5039383;28;19933;-68
2022/07/30 11:31:33;;;;;;;;;;;25.00;99.90;;;;;;5020466;28;19925;-67
2022/07/30 11:34:19;;;;;;;;;;;24.90;99.90;;;;;;5030197;28;19932;-68
2022/07/30 11:37:00;;;;;;;;;;;25.10;99.90;;;;;;5017418;28;19933;-68
2022/07/30 11:39:55;;;;;;;;;;;25.50;99.90;;;;;;5030710;28;19930;-67
2022/07/30 11:42:26;;;;;;;;;;;25.80;99.90;;;;;;5027719;28;19928;-67
2022/07/30 11:45:14;;;;;;;;;;;26.70;99.90;;;;;;5013916;28;19932;-68
2022/07/30 11:47:41;;;;;;;;;;;27.20;99.90;;;;;;5027701;28;19925;-67
2022/07/30 11:50:16;;;;;;;;;;;28.20;99.90;;;;;;5026897;28;19932;-67
2022/07/30 11:52:43;;;;;;;;;;;29.30;99.90;;;;;;5029804;28;19951;-67
2022/07/30 11:55:10;;;;;;;;;;;30.10;99.90;;;;;;5028548;28;20273;-67
2022/07/30 11:57:40;;;;;;;;;;;30.70;99.90;;;;;;5031186;28;19925;-68
2022/07/30 12:00:09;;;;;;;;;;;30.10;99.90;;;;;;5017262;28;19925;-67
2022/07/30 12:02:41;;;;;;;;;;;29.10;99.90;;;;;;5030802;28;19939;-67
2022/07/30 12:05:08;;;;;;;;;;;29.10;99.90;;;;;;5012079;28;20308;-67
2022/07/30 12:07:35;;;;;;;;;;;29.80;99.90;;;;;;5014948;28;19933;-67
2022/07/30 12:10:15;;;;;;;;;;;30.50;99.90;;;;;;5028228;28;19932;-66
2022/07/30 12:12:42;;;;;;;;;;;30.50;99.90;;;;;;5024825;28;19925;-66
2022/07/30 12:15:11;;;;;;;;;;;30.10;99.90;;;;;;5019006;28;19930;-66
2022/07/30 12:17:44;;;;;;;;;;;29.80;99.90;;;;;;5026642;28;19925;-67
2022/07/30 12:20:15;;;;;;;;;;;29.90;99.90;;;;;;5026887;28;19925;-67
2022/07/30 12:22:41;;;;;;;;;;;30.90;99.90;;;;;;5021701;28;20309;-67
2022/07/30 12:25:09;;;;;;;;;;;31.70;99.90;;;;;;5028451;28;19924;-67
2022/07/30 12:27:36;;;;;;;;;;;31.50;99.90;;;;;;5023758;28;19955;-80
2022/07/30 12:30:03;;;;;;;;;;;31.50;99.90;;;;;;5035835;28;19975;-67
2022/07/30 12:32:31;;;;;;;;;;;31.60;99.90;;;;;;5031754;28;19932;-67
2022/07/30 12:34:58;;;;;;;;;;;32.00;99.90;;;;;;5030085;28;19924;-67
2022/07/30 12:37:25;;;;;;;;;;;31.80;99.90;;;;;;5033295;28;19926;-67
2022/07/30 12:40:04;;;;;;;;;;;32.60;99.90;;;;;;5030216;28;20304;-67
2022/07/30 12:42:31;;;;;;;;;;;33.60;99.90;;;;;;5019277;28;19940;-63
2022/07/30 12:44:58;;;;;;;;;;;33.40;99.90;;;;;;5028929;28;19932;-63
2022/07/30 12:47:28;;;;;;;;;;;34.00;99.90;;;;;;5024301;28;20384;-66
2022/07/30 12:49:57;;;;;;;;;;;34.20;99.90;;;;;;5014965;28;20285;-63
2022/07/30 12:52:25;;;;;;;;;;;34.00;99.90;;;;;;5027598;28;19925;-63
2022/07/30 12:55:03;;;;;;;;;;;33.80;99.90;;;;;;5031081;28;19931;-63
2022/07/30 12:57:45;;;;;;;;;;;33.10;99.90;;;;;;5025836;28;19990;-64
2022/07/30 13:00:12;;;;;;;;;;;32.70;99.90;;;;;;5019738;28;19936;-65
2022/07/30 13:02:39;;;;;;;;;;;33.00;99.90;;;;;;5028664;28;19925;-67
2022/07/30 13:05:07;;;;;;;;;;;33.10;99.90;;;;;;5029033;28;19925;-67
2022/07/30 13:07:35;;;;;;;;;;;34.10;99.90;;;;;;5029429;28;20333;-66
2022/07/30 13:10:09;;;;;;;;;;;34.80;99.90;;;;;;5026547;28;19935;-66
2022/07/30 13:12:36;;;;;;;;;;;34.00;99.90;;;;;;5029048;28;19925;-66
2022/07/30 13:15:03;;;;;;;;;;;33.50;99.90;;;;;;5008091;28;20388;-64
2022/07/30 13:17:30;;;;;;;;;;;33.00;99.90;;;;;;5025981;28;19925;-65
2022/07/30 13:19:58;;;;;;;;;;;33.00;99.90;;;;;;5019348;28;19925;-66
2022/07/30 13:22:27;;;;;;;;;;;33.40;99.70;;;;;;5012680;28;19925;-66
2022/07/30 13:24:53;;;;;;;;;;;32.60;99.20;;;;;;5028288;28;19925;-67
2022/07/30 13:27:20;;;;;;;;;;;31.60;99.20;;;;;;5025359;28;19925;-67
2022/07/30 13:29:47;;;;;;;;;;;31.60;99.30;;;;;;5037349;23;20408;-71
2022/07/30 13:32:13;;;;;;;;;;;31.70;99.60;;;;;;5028449;28;19968;-71
2022/07/30 13:34:40;;;;;;;;;;;31.60;99.60;;;;;;5027236;28;19992;-70
2022/07/30 13:37:07;;;;;;;;;;;31.70;99.70;;;;;;5028764;28;19979;-70
2022/07/30 13:39:35;;;;;;;;;;;31.60;99.80;;;;;;5006506;28;20305;-71
2022/07/30 13:42:02;;;;;;;;;;;31.50;99.90;;;;;;5000440;28;19925;-71
2022/07/30 13:44:29;;;;;;;;;;;31.90;99.90;;;;;;5004643;28;19929;-70
2022/07/30 13:46:56;;;;;;;;;;;32.80;99.70;;;;;;5002949;28;19926;-71
2022/07/30 13:49:23;;;;;;;;;;;32.90;99.50;;;;;;4999871;28;19933;-70
2022/07/30 13:51:49;;;;;;;;;;;32.80;99.50;;;;;;5002513;28;19929;-70
2022/07/30 13:54:16;;;;;;;;;;;32.10;99.60;;;;;;5003199;28;19929;-70
2022/07/30 13:56:44;;;;;;;;;;;32.20;99.90;;;;;;5005082;28;19932;-70
2022/07/30 13:59:11;;;;;;;;;;;32.20;99.90;;;;;;4999872;28;19929;-70
2022/07/30 14:01:38;;;;;;;;;;;32.70;99.90;;;;;;5005253;28;20340;-70
2022/07/30 14:04:05;;;;;;;;;;;33.30;99.90;;;;;;4998409;28;19925;-70
2022/07/30 14:06:32;;;;;;;;;;;33.30;99.60;;;;;;5018481;28;19929;-70
2022/07/30 14:08:59;;;;;;;;;;;33.50;99.50;;;;;;5003033;28;19979;-69
2022/07/30 14:11:25;;;;;;;;;;;33.70;99.40;;;;;;5004602;28;19933;-69
2022/07/30 14:13:54;;;;;;;;;;;34.00;99.20;;;;;;4994110;28;19929;-69
2022/07/30 14:16:20;;;;;;;;;;;33.90;99.40;;;;;;4999304;28;20476;-70
2022/07/30 14:18:47;;;;;;;;;;;33.90;98.90;;;;;;5001749;28;19940;-68
2022/07/30 14:21:14;;;;;;;;;;;34.00;99.10;;;;;;5001923;28;19930;-70
2022/07/30 14:23:41;;;;;;;;;;;33.60;99.10;;;;;;5000159;28;20390;-70
2022/07/30 14:26:07;;;;;;;;;;;34.40;99.30;;;;;;4997911;28;19926;-70
2022/07/30 14:28:34;;;;;;;;;;;35.10;98.50;;;;;;5001065;28;19925;-69
2022/07/30 14:31:03;;;;;;;;;;;35.20;98.40;;;;;;5001105;28;19929;-70
2022/07/30 14:33:30;;;;;;;;;;;35.40;98.50;;;;;;5003564;28;20416;-70
2022/07/30 14:35:57;;;;;;;;;;;35.20;98.00;;;;;;4999014;28;20286;-70
2022/07/30 14:38:23;;;;;;;;;;;35.20;98.00;;;;;;5001876;28;19925;-70